Hellin, Spain
Current Conditions -  °F | °C
As of 8:00 AM on Friday 31 Oct 2014 (Local Time) from LEAB Reporting Station
Broken Clouds Broken Clouds  
Wind Chill: 57°   Ceiling: 1100
Heat Index: 57°   Visibility: 6mi
Dew Point: 52°   Wind: 7mph
Humidity: 82%   Direction: 120°ESE
Pressure: 30.27"   Gusts: NA
Location:  38.51°N, 1.7°W
Report Text: LEAB 310700Z 12006KT 9999 BKN011 14/11 Q1025 NOSIG
Loading
Personal Weather Stations






























Interactive Weather Map
Tropical Storm Tracking
New forecast layout! Learn more

10-Day Weather Forecast

Advertisements
Track Severe Weather on mobile